sensor_id;sensor_type;location;lat;lon;timestamp;pressure;altitude;pressure_sealevel;temperature;humidity
75594;BME280;64176;49.156;7.810;2022-12-11T00:00:44;98698.78;;;-4.24;85.78
75594;BME280;64176;49.156;7.810;2022-12-11T00:03:37;98698.88;;;-4.23;84.99
75594;BME280;64176;49.156;7.810;2022-12-11T00:06:25;98687.09;;;-4.38;85.25
75594;BME280;64176;49.156;7.810;2022-12-11T00:09:09;98692.63;;;-4.29;84.68
75594;BME280;64176;49.156;7.810;2022-12-11T00:11:53;98687.97;;;-4.38;84.14
75594;BME280;64176;49.156;7.810;2022-12-11T00:14:37;98694.75;;;-4.37;84.87
75594;BME280;64176;49.156;7.810;2022-12-11T00:17:24;98692.91;;;-4.40;85.55
75594;BME280;64176;49.156;7.810;2022-12-11T00:20:08;98686.31;;;-4.37;85.39
75594;BME280;64176;49.156;7.810;2022-12-11T00:22:55;98695.34;;;-4.41;85.54
75594;BME280;64176;49.156;7.810;2022-12-11T00:25:41;98695.41;;;-4.56;86.00
75594;BME280;64176;49.156;7.810;2022-12-11T00:28:27;98687.19;;;-4.52;85.21
75594;BME280;64176;49.156;7.810;2022-12-11T00:31:20;98692.44;;;-4.63;85.30
75594;BME280;64176;49.156;7.810;2022-12-11T00:34:07;98694.34;;;-4.59;85.58
75594;BME280;64176;49.156;7.810;2022-12-11T00:36:54;98698.72;;;-4.71;85.80
75594;BME280;64176;49.156;7.810;2022-12-11T00:39:49;98697.22;;;-4.53;86.16
75594;BME280;64176;49.156;7.810;2022-12-11T00:42:35;98698.94;;;-4.52;84.68
75594;BME280;64176;49.156;7.810;2022-12-11T00:45:22;98700.88;;;-4.63;85.00
75594;BME280;64176;49.156;7.810;2022-12-11T00:48:08;98696.09;;;-4.58;85.90
75594;BME280;64176;49.156;7.810;2022-12-11T00:50:52;98704.78;;;-4.53;84.62
75594;BME280;64176;49.156;7.810;2022-12-11T00:53:38;98698.00;;;-4.54;84.96
75594;BME280;64176;49.156;7.810;2022-12-11T00:56:25;98693.25;;;-4.64;83.82
75594;BME280;64176;49.156;7.810;2022-12-11T00:59:12;98706.16;;;-4.58;83.88
75594;BME280;64176;49.156;7.810;2022-12-11T01:01:56;98704.34;;;-4.61;84.10
75594;BME280;64176;49.156;7.810;2022-12-11T01:04:43;98707.72;;;-4.46;83.27
75594;BME280;64176;49.156;7.810;2022-12-11T01:07:30;98714.66;;;-4.42;84.38
75594;BME280;64176;49.156;7.810;2022-12-11T01:10:16;98717.97;;;-4.43;84.70
75594;BME280;64176;49.156;7.810;2022-12-11T01:13:10;98715.03;;;-4.50;84.05
75594;BME280;64176;49.156;7.810;2022-12-11T01:15:57;98721.88;;;-4.48;84.82
75594;BME280;64176;49.156;7.810;2022-12-11T01:18:41;98718.09;;;-4.25;84.49
75594;BME280;64176;49.156;7.810;2022-12-11T01:21:28;98717.94;;;-4.28;84.78
75594;BME280;64176;49.156;7.810;2022-12-11T01:24:14;98709.59;;;-4.27;85.72
75594;BME280;64176;49.156;7.810;2022-12-11T01:26:58;98728.50;;;-4.19;86.44
75594;BME280;64176;49.156;7.810;2022-12-11T01:29:45;98721.78;;;-4.34;86.76
75594;BME280;64176;49.156;7.810;2022-12-11T01:32:36;98727.44;;;-4.08;86.65
75594;BME280;64176;49.156;7.810;2022-12-11T01:35:20;98725.22;;;-3.87;85.97
75594;BME280;64176;49.156;7.810;2022-12-11T01:38:08;98729.59;;;-3.99;86.13
75594;BME280;64176;49.156;7.810;2022-12-11T01:40:52;98721.25;;;-3.82;85.43
75594;BME280;64176;49.156;7.810;2022-12-11T01:43:56;98730.66;;;-3.79;85.31
75594;BME280;64176;49.156;7.810;2022-12-11T01:46:41;98734.06;;;-3.62;86.36
75594;BME280;64176;49.156;7.810;2022-12-11T01:49:29;98735.69;;;-3.63;85.85
75594;BME280;64176;49.156;7.810;2022-12-11T01:52:15;98742.50;;;-3.62;86.00
75594;BME280;64176;49.156;7.810;2022-12-11T01:55:03;98731.06;;;-3.55;86.68
75594;BME280;64176;49.156;7.810;2022-12-11T01:57:49;98727.97;;;-3.50;86.64
75594;BME280;64176;49.156;7.810;2022-12-11T02:00:34;98728.94;;;-3.48;86.36
75594;BME280;64176;49.156;7.810;2022-12-11T02:03:20;98730.09;;;-3.41;86.89
75594;BME280;64176;49.156;7.810;2022-12-11T02:06:04;98741.41;;;-3.35;86.52
75594;BME280;64176;49.156;7.810;2022-12-11T02:08:51;98735.66;;;-3.32;85.78
75594;BME280;64176;49.156;7.810;2022-12-11T02:12:02;98742.25;;;-3.50;87.44
75594;BME280;64176;49.156;7.810;2022-12-11T02:15:10;98735.88;;;-3.44;86.70
75594;BME280;64176;49.156;7.810;2022-12-11T02:30:05;98730.97;;;-3.41;87.33
75594;BME280;64176;49.156;7.810;2022-12-11T02:35:41;98714.63;;;-3.15;86.57
75594;BME280;64176;49.156;7.810;2022-12-11T02:38:32;98708.34;;;-3.05;86.55
75594;BME280;64176;49.156;7.810;2022-12-11T02:41:21;98710.09;;;-3.04;85.85
75594;BME280;64176;49.156;7.810;2022-12-11T02:44:07;98717.84;;;-3.01;86.49
75594;BME280;64176;49.156;7.810;2022-12-11T02:46:53;98712.53;;;-3.06;87.09
75594;BME280;64176;49.156;7.810;2022-12-11T02:49:40;98709.31;;;-3.03;86.72
75594;BME280;64176;49.156;7.810;2022-12-11T02:52:27;98693.28;;;-3.20;87.18
75594;BME280;64176;49.156;7.810;2022-12-11T02:55:15;98715.44;;;-2.98;87.06
75594;BME280;64176;49.156;7.810;2022-12-11T02:58:30;98711.03;;;-3.02;86.87
75594;BME280;64176;49.156;7.810;2022-12-11T03:01:16;98701.03;;;-2.83;86.65
75594;BME280;64176;49.156;7.810;2022-12-11T03:04:00;98703.00;;;-3.11;87.17
75594;BME280;64176;49.156;7.810;2022-12-11T03:06:53;98707.66;;;-2.85;87.63
75594;BME280;64176;49.156;7.810;2022-12-11T03:09:41;98702.78;;;-2.82;86.27
75594;BME280;64176;49.156;7.810;2022-12-11T03:12:30;98697.03;;;-2.96;87.03
75594;BME280;64176;49.156;7.810;2022-12-11T03:15:17;98707.81;;;-2.82;86.45
75594;BME280;64176;49.156;7.810;2022-12-11T03:18:11;98702.84;;;-2.80;86.88
75594;BME280;64176;49.156;7.810;2022-12-11T03:21:14;98708.69;;;-2.81;86.76
75594;BME280;64176;49.156;7.810;2022-12-11T03:24:27;98705.47;;;-2.79;86.50
75594;BME280;64176;49.156;7.810;2022-12-11T03:27:20;98698.44;;;-2.84;86.67
75594;BME280;64176;49.156;7.810;2022-12-11T03:30:16;98703.88;;;-2.77;86.51
75594;BME280;64176;49.156;7.810;2022-12-11T03:33:04;98705.03;;;-2.70;86.94
75594;BME280;64176;49.156;7.810;2022-12-11T03:35:54;98705.81;;;-2.89;87.00
75594;BME280;64176;49.156;7.810;2022-12-11T03:38:49;98717.22;;;-2.79;87.16
75594;BME280;64176;49.156;7.810;2022-12-11T03:41:36;98721.78;;;-2.72;86.43
75594;BME280;64176;49.156;7.810;2022-12-11T03:44:26;98718.81;;;-2.81;87.69
75594;BME280;64176;49.156;7.810;2022-12-11T03:47:19;98709.84;;;-3.09;87.77
75594;BME280;64176;49.156;7.810;2022-12-11T03:50:10;98712.78;;;-3.01;87.88
75594;BME280;64176;49.156;7.810;2022-12-11T03:52:55;98710.59;;;-2.77;87.79
75594;BME280;64176;49.156;7.810;2022-12-11T03:55:40;98710.44;;;-2.63;87.67
75594;BME280;64176;49.156;7.810;2022-12-11T03:58:24;98714.28;;;-2.53;86.55
75594;BME280;64176;49.156;7.810;2022-12-11T04:01:11;98700.63;;;-2.57;87.00
75594;BME280;64176;49.156;7.810;2022-12-11T04:03:55;98715.28;;;-2.49;86.68
75594;BME280;64176;49.156;7.810;2022-12-11T04:06:39;98716.16;;;-2.49;87.09
75594;BME280;64176;49.156;7.810;2022-12-11T04:09:22;98711.09;;;-2.49;86.54
75594;BME280;64176;49.156;7.810;2022-12-11T04:12:06;98704.81;;;-2.57;87.49
75594;BME280;64176;49.156;7.810;2022-12-11T04:14:55;98702.00;;;-2.45;86.83
75594;BME280;64176;49.156;7.810;2022-12-11T04:17:45;98698.47;;;-2.49;87.15
75594;BME280;64176;49.156;7.810;2022-12-11T04:20:48;98697.50;;;-2.51;86.29
75594;BME280;64176;49.156;7.810;2022-12-11T04:23:57;98690.06;;;-2.48;86.26
75594;BME280;64176;49.156;7.810;2022-12-11T04:27:04;98692.16;;;-2.39;86.19
75594;BME280;64176;49.156;7.810;2022-12-11T04:29:50;98690.44;;;-2.40;86.83
75594;BME280;64176;49.156;7.810;2022-12-11T04:32:37;98675.91;;;-2.44;86.73
75594;BME280;64176;49.156;7.810;2022-12-11T04:35:21;98681.31;;;-2.37;86.17
75594;BME280;64176;49.156;7.810;2022-12-11T04:38:08;98686.16;;;-2.41;86.25
75594;BME280;64176;49.156;7.810;2022-12-11T04:40:59;98672.78;;;-2.39;86.26
75594;BME280;64176;49.156;7.810;2022-12-11T04:43:44;98657.91;;;-2.50;87.22
75594;BME280;64176;49.156;7.810;2022-12-11T04:46:30;98662.59;;;-2.40;86.83
75594;BME280;64176;49.156;7.810;2022-12-11T04:49:18;98664.69;;;-2.32;86.99
75594;BME280;64176;49.156;7.810;2022-12-11T04:52:04;98660.78;;;-2.25;86.70
75594;BME280;64176;49.156;7.810;2022-12-11T04:54:54;98664.97;;;-2.26;86.79
75594;BME280;64176;49.156;7.810;2022-12-11T04:57:40;98666.78;;;-2.23;87.35
75594;BME280;64176;49.156;7.810;2022-12-11T05:00:24;98665.84;;;-2.25;86.75
75594;BME280;64176;49.156;7.810;2022-12-11T05:03:10;98670.03;;;-2.26;86.99
75594;BME280;64176;49.156;7.810;2022-12-11T05:05:57;98663.38;;;-2.24;86.59
75594;BME280;64176;49.156;7.810;2022-12-11T05:08:45;98671.06;;;-2.22;86.88
75594;BME280;64176;49.156;7.810;2022-12-11T05:11:32;98661.13;;;-2.17;86.28
75594;BME280;64176;49.156;7.810;2022-12-11T05:14:16;98665.25;;;-2.20;86.50
75594;BME280;64176;49.156;7.810;2022-12-11T05:17:00;98671.41;;;-2.14;86.40
75594;BME280;64176;49.156;7.810;2022-12-11T05:19:48;98661.06;;;-2.19;87.04
75594;BME280;64176;49.156;7.810;2022-12-11T05:22:36;98667.13;;;-2.15;87.14
75594;BME280;64176;49.156;7.810;2022-12-11T05:25:22;98672.72;;;-2.23;87.37
75594;BME280;64176;49.156;7.810;2022-12-11T05:28:06;98662.53;;;-2.24;88.12
75594;BME280;64176;49.156;7.810;2022-12-11T05:30:58;98662.94;;;-2.15;87.80
75594;BME280;64176;49.156;7.810;2022-12-11T05:33:45;98654.47;;;-2.15;87.68
75594;BME280;64176;49.156;7.810;2022-12-11T05:36:33;98648.06;;;-2.27;88.02
75594;BME280;64176;49.156;7.810;2022-12-11T05:39:17;98647.50;;;-2.21;87.75
75594;BME280;64176;49.156;7.810;2022-12-11T05:42:04;98634.75;;;-2.23;87.86
75594;BME280;64176;49.156;7.810;2022-12-11T05:44:48;98641.75;;;-2.17;88.34
75594;BME280;64176;49.156;7.810;2022-12-11T05:47:32;98625.75;;;-2.16;88.04
75594;BME280;64176;49.156;7.810;2022-12-11T05:50:16;98641.28;;;-2.08;87.46
75594;BME280;64176;49.156;7.810;2022-12-11T05:53:03;98647.28;;;-2.06;87.07
75594;BME280;64176;49.156;7.810;2022-12-11T05:55:50;98640.63;;;-2.04;87.56
75594;BME280;64176;49.156;7.810;2022-12-11T05:58:34;98638.09;;;-2.04;87.66
75594;BME280;64176;49.156;7.810;2022-12-11T06:01:24;98630.09;;;-2.13;87.79
75594;BME280;64176;49.156;7.810;2022-12-11T06:04:11;98632.72;;;-2.12;88.43
75594;BME280;64176;49.156;7.810;2022-12-11T06:06:56;98633.66;;;-2.28;88.63
75594;BME280;64176;49.156;7.810;2022-12-11T06:09:40;98632.31;;;-2.21;88.37
75594;BME280;64176;49.156;7.810;2022-12-11T06:12:24;98636.91;;;-2.30;89.18
75594;BME280;64176;49.156;7.810;2022-12-11T06:15:08;98631.47;;;-2.20;88.88
75594;BME280;64176;49.156;7.810;2022-12-11T06:17:52;98638.56;;;-2.13;88.31
75594;BME280;64176;49.156;7.810;2022-12-11T06:20:39;98633.44;;;-2.14;88.85
75594;BME280;64176;49.156;7.810;2022-12-11T06:23:26;98629.09;;;-2.17;88.62
75594;BME280;64176;49.156;7.810;2022-12-11T06:26:10;98621.81;;;-2.09;88.22
75594;BME280;64176;49.156;7.810;2022-12-11T06:28:55;98622.84;;;-2.06;88.13
75594;BME280;64176;49.156;7.810;2022-12-11T06:31:39;98604.25;;;-2.06;88.44
75594;BME280;64176;49.156;7.810;2022-12-11T06:34:28;98618.00;;;-2.01;88.36
75594;BME280;64176;49.156;7.810;2022-12-11T06:37:14;98619.25;;;-2.11;89.21
75594;BME280;64176;49.156;7.810;2022-12-11T06:40:03;98626.06;;;-2.10;88.39
75594;BME280;64176;49.156;7.810;2022-12-11T06:42:50;98620.59;;;-2.00;88.74
75594;BME280;64176;49.156;7.810;2022-12-11T06:45:37;98619.91;;;-1.96;88.01
75594;BME280;64176;49.156;7.810;2022-12-11T06:48:23;98626.78;;;-1.93;88.12
75594;BME280;64176;49.156;7.810;2022-12-11T06:51:10;98624.31;;;-1.92;87.84
75594;BME280;64176;49.156;7.810;2022-12-11T06:53:55;98628.38;;;-1.95;88.35
75594;BME280;64176;49.156;7.810;2022-12-11T06:56:44;98626.31;;;-2.04;89.16
75594;BME280;64176;49.156;7.810;2022-12-11T06:59:29;98628.81;;;-2.23;89.88
75594;BME280;64176;49.156;7.810;2022-12-11T07:02:17;98634.38;;;-2.12;89.24
75594;BME280;64176;49.156;7.810;2022-12-11T07:05:04;98628.31;;;-1.97;88.31
75594;BME280;64176;49.156;7.810;2022-12-11T07:07:52;98629.38;;;-1.92;88.47
75594;BME280;64176;49.156;7.810;2022-12-11T07:10:36;98628.69;;;-1.88;88.66
75594;BME280;64176;49.156;7.810;2022-12-11T07:13:21;98616.97;;;-1.86;88.19
75594;BME280;64176;49.156;7.810;2022-12-11T07:16:05;98622.97;;;-1.84;88.34
75594;BME280;64176;49.156;7.810;2022-12-11T07:18:53;98626.47;;;-1.81;88.53
75594;BME280;64176;49.156;7.810;2022-12-11T07:21:37;98627.50;;;-1.96;88.46
75594;BME280;64176;49.156;7.810;2022-12-11T07:24:21;98612.53;;;-1.91;88.98
75594;BME280;64176;49.156;7.810;2022-12-11T07:27:06;98627.25;;;-1.83;88.72
75594;BME280;64176;49.156;7.810;2022-12-11T07:29:53;98628.66;;;-1.70;88.28
75594;BME280;64176;49.156;7.810;2022-12-11T07:32:38;98637.84;;;-1.72;88.10
75594;BME280;64176;49.156;7.810;2022-12-11T07:35:27;98634.63;;;-1.87;88.36
75594;BME280;64176;49.156;7.810;2022-12-11T07:38:11;98643.47;;;-1.79;88.52
75594;BME280;64176;49.156;7.810;2022-12-11T07:40:59;98640.84;;;-2.00;88.91
75594;BME280;64176;49.156;7.810;2022-12-11T07:43:43;98638.00;;;-1.88;88.90
75594;BME280;64176;49.156;7.810;2022-12-11T07:46:32;98635.78;;;-1.80;88.74
75594;BME280;64176;49.156;7.810;2022-12-11T07:49:16;98639.84;;;-1.84;88.77
75594;BME280;64176;49.156;7.810;2022-12-11T07:52:02;98636.50;;;-1.83;89.21
75594;BME280;64176;49.156;7.810;2022-12-11T07:54:46;98646.66;;;-1.83;88.67
75594;BME280;64176;49.156;7.810;2022-12-11T07:57:30;98638.25;;;-1.82;88.63
75594;BME280;64176;49.156;7.810;2022-12-11T08:00:14;98648.31;;;-1.64;88.66
75594;BME280;64176;49.156;7.810;2022-12-11T08:03:02;98647.41;;;-1.66;88.24
75594;BME280;64176;49.156;7.810;2022-12-11T08:05:47;98647.00;;;-1.56;87.84
75594;BME280;64176;49.156;7.810;2022-12-11T08:08:33;98643.91;;;-1.68;88.46
75594;BME280;64176;49.156;7.810;2022-12-11T08:11:17;98650.09;;;-1.62;87.86
75594;BME280;64176;49.156;7.810;2022-12-11T08:14:01;98655.72;;;-1.69;88.37
75594;BME280;64176;49.156;7.810;2022-12-11T08:16:47;98652.38;;;-1.68;88.44
75594;BME280;64176;49.156;7.810;2022-12-11T08:19:32;98652.19;;;-1.72;88.81
75594;BME280;64176;49.156;7.810;2022-12-11T08:22:16;98646.84;;;-1.59;88.07
75594;BME280;64176;49.156;7.810;2022-12-11T08:25:00;98651.28;;;-1.54;88.05
75594;BME280;64176;49.156;7.810;2022-12-11T08:27:45;98648.97;;;-1.49;88.33
75594;BME280;64176;49.156;7.810;2022-12-11T08:30:31;98643.75;;;-1.52;88.49
75594;BME280;64176;49.156;7.810;2022-12-11T08:33:20;98644.97;;;-1.63;88.19
75594;BME280;64176;49.156;7.810;2022-12-11T08:36:12;98644.69;;;-1.50;88.00
75594;BME280;64176;49.156;7.810;2022-12-11T08:38:56;98645.31;;;-1.56;87.14
75594;BME280;64176;49.156;7.810;2022-12-11T08:41:40;98643.41;;;-1.40;86.77
75594;BME280;64176;49.156;7.810;2022-12-11T08:44:24;98648.56;;;-1.39;87.32
75594;BME280;64176;49.156;7.810;2022-12-11T08:47:09;98646.03;;;-1.39;86.96
75594;BME280;64176;49.156;7.810;2022-12-11T08:49:56;98647.75;;;-1.38;87.85
75594;BME280;64176;49.156;7.810;2022-12-11T08:52:40;98644.69;;;-1.50;87.69
75594;BME280;64176;49.156;7.810;2022-12-11T08:55:24;98634.16;;;-1.40;87.89
75594;BME280;64176;49.156;7.810;2022-12-11T08:58:13;98634.31;;;-1.56;87.41
75594;BME280;64176;49.156;7.810;2022-12-11T09:00:57;98633.34;;;-1.39;87.91
75594;BME280;64176;49.156;7.810;2022-12-11T09:03:41;98631.13;;;-1.31;86.73
75594;BME280;64176;49.156;7.810;2022-12-11T09:06:31;98634.47;;;-1.32;87.06
75594;BME280;64176;49.156;7.810;2022-12-11T09:09:20;98642.91;;;-1.53;86.80
75594;BME280;64176;49.156;7.810;2022-12-11T09:12:04;98638.75;;;-1.51;87.67
75594;BME280;64176;49.156;7.810;2022-12-11T09:14:49;98636.47;;;-1.25;87.28
75594;BME280;64176;49.156;7.810;2022-12-11T09:17:34;98630.22;;;-1.33;86.52
75594;BME280;64176;49.156;7.810;2022-12-11T09:20:21;98621.34;;;-1.43;86.54
75594;BME280;64176;49.156;7.810;2022-12-11T09:23:12;98614.09;;;-1.35;86.28
75594;BME280;64176;49.156;7.810;2022-12-11T09:25:56;98628.22;;;-1.40;86.44
75594;BME280;64176;49.156;7.810;2022-12-11T09:28:43;98640.91;;;-1.20;86.53
75594;BME280;64176;49.156;7.810;2022-12-11T09:31:32;98640.00;;;-1.22;85.38
75594;BME280;64176;49.156;7.810;2022-12-11T09:34:19;98632.84;;;-1.30;85.50
75594;BME280;64176;49.156;7.810;2022-12-11T09:37:03;98638.91;;;-1.48;86.61
75594;BME280;64176;49.156;7.810;2022-12-11T09:39:47;98620.38;;;-1.47;86.41
75594;BME280;64176;49.156;7.810;2022-12-11T09:45:21;98626.63;;;-1.38;86.88
75594;BME280;64176;49.156;7.810;2022-12-11T09:48:10;98615.63;;;-1.39;86.28
75594;BME280;64176;49.156;7.810;2022-12-11T09:51:07;98626.94;;;-1.31;86.28
75594;BME280;64176;49.156;7.810;2022-12-11T09:53:58;98625.94;;;-1.34;86.57
75594;BME280;64176;49.156;7.810;2022-12-11T09:56:59;98626.03;;;-1.33;87.03
75594;BME280;64176;49.156;7.810;2022-12-11T10:06:16;98623.50;;;-1.12;85.57
75594;BME280;64176;49.156;7.810;2022-12-11T10:09:13;98605.41;;;-1.40;86.04
75594;BME280;64176;49.156;7.810;2022-12-11T10:15:15;98596.06;;;-1.41;86.49
75594;BME280;64176;49.156;7.810;2022-12-11T10:18:04;98595.41;;;-1.17;85.80
75594;BME280;64176;49.156;7.810;2022-12-11T10:20:52;98590.22;;;-1.20;85.69
75594;BME280;64176;49.156;7.810;2022-12-11T10:23:45;98584.72;;;-1.30;85.53
75594;BME280;64176;49.156;7.810;2022-12-11T10:26:33;98595.09;;;-1.03;85.38
75594;BME280;64176;49.156;7.810;2022-12-11T10:29:18;98588.97;;;-1.29;86.11
75594;BME280;64176;49.156;7.810;2022-12-11T10:32:04;98578.66;;;-1.13;85.23
75594;BME280;64176;49.156;7.810;2022-12-11T10:34:55;98577.44;;;-1.23;84.79
75594;BME280;64176;49.156;7.810;2022-12-11T10:37:42;98574.91;;;-1.23;86.40
75594;BME280;64176;49.156;7.810;2022-12-11T10:40:28;98572.38;;;-1.23;85.86
75594;BME280;64176;49.156;7.810;2022-12-11T10:43:13;98566.22;;;-1.28;86.15
75594;BME280;64176;49.156;7.810;2022-12-11T10:45:57;98563.31;;;-1.16;85.65
75594;BME280;64176;49.156;7.810;2022-12-11T10:48:52;98568.69;;;-1.08;85.95
75594;BME280;64176;49.156;7.810;2022-12-11T10:51:36;98563.75;;;-1.26;86.15
75594;BME280;64176;49.156;7.810;2022-12-11T10:57:13;98559.41;;;-1.08;85.86
75594;BME280;64176;49.156;7.810;2022-12-11T10:59:58;98552.50;;;-1.12;85.12
75594;BME280;64176;49.156;7.810;2022-12-11T11:02:47;98547.06;;;-1.00;85.08
75594;BME280;64176;49.156;7.810;2022-12-11T11:05:38;98534.81;;;-0.88;85.00
75594;BME280;64176;49.156;7.810;2022-12-11T11:08:36;98538.88;;;-0.71;84.13
75594;BME280;64176;49.156;7.810;2022-12-11T11:11:34;98534.44;;;-0.77;84.64
75594;BME280;64176;49.156;7.810;2022-12-11T11:14:20;98547.28;;;-0.94;84.11
75594;BME280;64176;49.156;7.810;2022-12-11T11:17:14;98532.25;;;-0.90;84.47
75594;BME280;64176;49.156;7.810;2022-12-11T11:20:11;98524.81;;;-0.85;84.66
75594;BME280;64176;49.156;7.810;2022-12-11T11:22:59;98515.66;;;-0.82;83.64
75594;BME280;64176;49.156;7.810;2022-12-11T11:25:55;98541.56;;;-0.68;83.36
75594;BME280;64176;49.156;7.810;2022-12-11T11:28:41;98540.09;;;-0.84;83.39
75594;BME280;64176;49.156;7.810;2022-12-11T11:31:35;98532.94;;;-0.94;84.23
75594;BME280;64176;49.156;7.810;2022-12-11T11:34:20;98530.81;;;-0.83;83.79
75594;BME280;64176;49.156;7.810;2022-12-11T11:37:42;98526.81;;;-0.77;82.96
75594;BME280;64176;49.156;7.810;2022-12-11T11:40:53;98534.50;;;-0.75;82.89
75594;BME280;64176;49.156;7.810;2022-12-11T11:43:48;98530.94;;;-0.80;83.37
75594;BME280;64176;49.156;7.810;2022-12-11T11:46:41;98526.16;;;-0.73;82.74
75594;BME280;64176;49.156;7.810;2022-12-11T11:52:54;98529.94;;;-0.61;82.40
75594;BME280;64176;49.156;7.810;2022-12-11T12:01:42;98512.84;;;-0.67;83.07
75594;BME280;64176;49.156;7.810;2022-12-11T12:04:33;98517.94;;;-0.65;82.71
75594;BME280;64176;49.156;7.810;2022-12-11T12:08:04;98514.13;;;-0.78;83.25
75594;BME280;64176;49.156;7.810;2022-12-11T12:10:36;98523.59;;;-0.50;82.00
75594;BME280;64176;49.156;7.810;2022-12-11T12:14:04;98515.00;;;-0.76;82.94
75594;BME280;64176;49.156;7.810;2022-12-11T12:17:30;98516.53;;;-0.59;82.89
75594;BME280;64176;49.156;7.810;2022-12-11T12:26:31;98503.97;;;-0.54;81.58
75594;BME280;64176;49.156;7.810;2022-12-11T12:30:00;98504.03;;;-0.53;82.20
75594;BME280;64176;49.156;7.810;2022-12-11T12:35:35;98502.81;;;-0.40;81.51
75594;BME280;64176;49.156;7.810;2022-12-11T12:41:23;98490.25;;;-0.37;80.97
75594;BME280;64176;49.156;7.810;2022-12-11T12:44:16;98498.41;;;-0.46;81.05
75594;BME280;64176;49.156;7.810;2022-12-11T12:47:04;98494.44;;;-0.61;81.07
75594;BME280;64176;49.156;7.810;2022-12-11T12:49:54;98494.66;;;-0.55;81.82
75594;BME280;64176;49.156;7.810;2022-12-11T12:52:39;98484.63;;;-0.28;81.35
75594;BME280;64176;49.156;7.810;2022-12-11T12:55:25;98486.41;;;-0.50;81.84
75594;BME280;64176;49.156;7.810;2022-12-11T13:04:05;98494.78;;;-0.28;80.09
75594;BME280;64176;49.156;7.810;2022-12-11T13:06:54;98503.28;;;-0.50;81.41
75594;BME280;64176;49.156;7.810;2022-12-11T13:09:39;98487.84;;;-0.32;81.38
75594;BME280;64176;49.156;7.810;2022-12-11T13:12:40;98493.97;;;-0.27;81.06
75594;BME280;64176;49.156;7.810;2022-12-11T13:15:39;98493.44;;;-0.19;80.62
75594;BME280;64176;49.156;7.810;2022-12-11T13:21:36;98497.56;;;-0.22;81.23
75594;BME280;64176;49.156;7.810;2022-12-11T13:24:25;98500.06;;;-0.46;81.55
75594;BME280;64176;49.156;7.810;2022-12-11T13:27:44;98499.94;;;-0.49;81.73
75594;BME280;64176;49.156;7.810;2022-12-11T13:30:28;98500.66;;;-0.29;82.00
75594;BME280;64176;49.156;7.810;2022-12-11T13:33:17;98494.22;;;-0.20;81.33
75594;BME280;64176;49.156;7.810;2022-12-11T13:38:59;98483.81;;;-0.27;81.63
75594;BME280;64176;49.156;7.810;2022-12-11T13:41:50;98490.81;;;-0.44;81.48
75594;BME280;64176;49.156;7.810;2022-12-11T13:44:40;98498.59;;;-0.40;81.73
75594;BME280;64176;49.156;7.810;2022-12-11T13:47:25;98494.34;;;-0.17;81.29
75594;BME280;64176;49.156;7.810;2022-12-11T13:50:36;98503.38;;;-0.25;80.56
75594;BME280;64176;49.156;7.810;2022-12-11T13:53:20;98503.44;;;-0.23;80.42
75594;BME280;64176;49.156;7.810;2022-12-11T13:56:06;98500.25;;;-0.18;80.61
75594;BME280;64176;49.156;7.810;2022-12-11T13:58:50;98513.25;;;-0.32;81.14
75594;BME280;64176;49.156;7.810;2022-12-11T14:01:38;98510.13;;;-0.25;80.59
75594;BME280;64176;49.156;7.810;2022-12-11T14:04:23;98525.34;;;-0.49;81.53
75594;BME280;64176;49.156;7.810;2022-12-11T14:07:10;98520.59;;;-0.40;81.70
75594;BME280;64176;49.156;7.810;2022-12-11T14:10:04;98520.59;;;-0.16;80.90
75594;BME280;64176;49.156;7.810;2022-12-11T14:15:47;98525.06;;;-0.33;81.42
75594;BME280;64176;49.156;7.810;2022-12-11T14:18:35;98521.28;;;-0.20;80.51
75594;BME280;64176;49.156;7.810;2022-12-11T14:21:22;98526.97;;;-0.27;80.95
75594;BME280;64176;49.156;7.810;2022-12-11T14:24:11;98531.00;;;-0.32;81.02
75594;BME280;64176;49.156;7.810;2022-12-11T14:26:58;98531.59;;;-0.40;81.62
75594;BME280;64176;49.156;7.810;2022-12-11T14:29:45;98535.81;;;-0.40;81.38
75594;BME280;64176;49.156;7.810;2022-12-11T14:32:35;98542.34;;;-0.47;81.00
75594;BME280;64176;49.156;7.810;2022-12-11T14:35:37;98533.59;;;-0.31;81.46
75594;BME280;64176;49.156;7.810;2022-12-11T14:38:26;98539.91;;;-0.44;81.21
75594;BME280;64176;49.156;7.810;2022-12-11T14:41:24;98548.22;;;-0.48;81.38
75594;BME280;64176;49.156;7.810;2022-12-11T14:44:14;98542.97;;;-0.52;81.45
75594;BME280;64176;49.156;7.810;2022-12-11T14:47:02;98526.72;;;-0.57;81.05
75594;BME280;64176;49.156;7.810;2022-12-11T14:53:07;98532.56;;;-0.60;81.18
75594;BME280;64176;49.156;7.810;2022-12-11T14:55:53;98549.44;;;-0.60;81.50
75594;BME280;64176;49.156;7.810;2022-12-11T14:58:46;98537.03;;;-0.75;81.46
75594;BME280;64176;49.156;7.810;2022-12-11T15:01:35;98542.22;;;-0.50;81.50
75594;BME280;64176;49.156;7.810;2022-12-11T15:04:22;98540.63;;;-0.70;81.51
75594;BME280;64176;49.156;7.810;2022-12-11T15:07:18;98548.09;;;-0.73;81.25
75594;BME280;64176;49.156;7.810;2022-12-11T15:10:03;98540.84;;;-0.86;82.00
75594;BME280;64176;49.156;7.810;2022-12-11T15:12:50;98544.09;;;-0.68;81.54
75594;BME280;64176;49.156;7.810;2022-12-11T15:15:44;98543.22;;;-0.46;81.00
75594;BME280;64176;49.156;7.810;2022-12-11T15:18:33;98538.69;;;-0.76;81.55
75594;BME280;64176;49.156;7.810;2022-12-11T15:21:30;98553.53;;;-0.64;81.34
75594;BME280;64176;49.156;7.810;2022-12-11T15:24:26;98558.84;;;-0.58;81.18
75594;BME280;64176;49.156;7.810;2022-12-11T15:27:37;98556.31;;;-0.58;81.09
75594;BME280;64176;49.156;7.810;2022-12-11T15:36:01;98564.00;;;-0.56;81.51
75594;BME280;64176;49.156;7.810;2022-12-11T15:38:51;98566.63;;;-0.53;81.64
75594;BME280;64176;49.156;7.810;2022-12-11T15:41:40;98566.97;;;-0.44;81.44
75594;BME280;64176;49.156;7.810;2022-12-11T15:44:24;98551.38;;;-0.76;81.52
75594;BME280;64176;49.156;7.810;2022-12-11T15:47:18;98560.34;;;-0.63;81.20
75594;BME280;64176;49.156;7.810;2022-12-11T15:50:17;98563.25;;;-0.75;81.50
75594;BME280;64176;49.156;7.810;2022-12-11T15:53:02;98567.31;;;-0.80;81.76
75594;BME280;64176;49.156;7.810;2022-12-11T15:55:46;98556.94;;;-0.63;82.12
75594;BME280;64176;49.156;7.810;2022-12-11T15:58:30;98565.75;;;-0.76;81.33
75594;BME280;64176;49.156;7.810;2022-12-11T16:01:15;98556.97;;;-0.84;82.22
75594;BME280;64176;49.156;7.810;2022-12-11T16:04:01;98566.25;;;-0.85;81.94
75594;BME280;64176;49.156;7.810;2022-12-11T16:06:48;98570.47;;;-0.85;82.76
75594;BME280;64176;49.156;7.810;2022-12-11T16:09:34;98571.19;;;-0.67;81.82